createdAt,value
2016-12-21T00:00:47.824Z,973.74
2016-12-21T00:01:47.781Z,973.75
2016-12-21T00:02:47.738Z,973.77
2016-12-21T00:03:47.695Z,973.76
2016-12-21T00:04:47.654Z,973.76
2016-12-21T00:05:47.611Z,973.75
2016-12-21T00:06:47.570Z,973.75
2016-12-21T00:07:47.527Z,973.71
2016-12-21T00:08:47.486Z,973.75
2016-12-21T00:09:47.443Z,973.77
2016-12-21T00:10:47.401Z,973.82
2016-12-21T00:11:47.359Z,973.83
2016-12-21T00:12:47.316Z,973.83
2016-12-21T00:13:47.273Z,973.83
2016-12-21T00:14:47.233Z,973.83
2016-12-21T00:15:47.190Z,973.87
2016-12-21T00:16:47.145Z,973.9
2016-12-21T00:17:47.104Z,973.93
2016-12-21T00:18:47.062Z,973.95
2016-12-21T00:19:47.020Z,973.89
2016-12-21T00:20:46.979Z,973.88
2016-12-21T00:21:46.936Z,973.89
2016-12-21T00:22:46.893Z,973.87
2016-12-21T00:23:46.852Z,973.85
2016-12-21T00:24:46.808Z,973.85
2016-12-21T00:25:46.766Z,973.84
2016-12-21T00:26:46.725Z,973.85
2016-12-21T00:27:46.684Z,973.86
2016-12-21T00:28:46.641Z,973.9
2016-12-21T00:29:46.597Z,973.95
2016-12-21T00:30:46.556Z,973.93
2016-12-21T00:31:46.513Z,973.96
2016-12-21T00:32:46.470Z,973.99
2016-12-21T00:33:46.430Z,973.99
2016-12-21T00:34:46.386Z,974.08
2016-12-21T00:35:46.343Z,974.03
2016-12-21T00:36:46.301Z,974.04
2016-12-21T00:37:46.261Z,974.04
2016-12-21T00:38:46.217Z,974.05
2016-12-21T00:39:46.177Z,974.04
2016-12-21T00:40:46.132Z,974.02
2016-12-21T00:41:46.092Z,974.03
2016-12-21T00:42:46.048Z,974.06
2016-12-21T00:43:46.006Z,974.08
2016-12-21T00:44:45.965Z,974.01
2016-12-21T00:45:45.923Z,974.07
2016-12-21T00:46:45.878Z,974.08
2016-12-21T00:47:45.837Z,974.04
2016-12-21T00:48:45.795Z,974.06
2016-12-21T00:49:45.753Z,974.05
2016-12-21T00:50:45.712Z,974.06
2016-12-21T00:51:45.668Z,974.05
2016-12-21T00:52:45.628Z,974.06
2016-12-21T00:53:45.582Z,974.02
2016-12-21T00:54:45.542Z,974.03
2016-12-21T00:55:45.499Z,974.04
2016-12-21T00:56:45.457Z,974.07
2016-12-21T00:57:45.414Z,974.08
2016-12-21T00:58:45.371Z,974.09
2016-12-21T00:59:45.329Z,974.1
2016-12-21T01:00:45.290Z,974.12
2016-12-21T01:01:45.243Z,974.17
2016-12-21T01:02:45.202Z,974.19
2016-12-21T01:03:45.161Z,974.23
2016-12-21T01:04:45.117Z,974.22
2016-12-21T01:05:45.075Z,974.22
2016-12-21T01:06:45.033Z,974.24
2016-12-21T01:07:44.991Z,974.26
2016-12-21T01:08:44.947Z,974.23
2016-12-21T01:09:44.905Z,974.2
2016-12-21T01:10:44.864Z,974.22
2016-12-21T01:11:44.820Z,974.25
2016-12-21T01:12:44.779Z,974.28
2016-12-21T01:13:44.736Z,974.29
2016-12-21T01:14:44.695Z,974.34
2016-12-21T01:15:44.649Z,974.3
2016-12-21T01:16:44.607Z,974.29
2016-12-21T01:17:44.566Z,974.27
2016-12-21T01:18:44.525Z,974.3
2016-12-21T01:19:44.481Z,974.33
2016-12-21T01:20:44.439Z,974.38
2016-12-21T01:21:44.396Z,974.36
2016-12-21T01:22:44.354Z,974.36
2016-12-21T01:23:44.314Z,974.38
2016-12-21T01:24:44.268Z,974.43
2016-12-21T01:25:44.227Z,974.39
2016-12-21T01:26:44.184Z,974.35
2016-12-21T01:27:44.142Z,974.38
2016-12-21T01:28:44.099Z,974.43
2016-12-21T01:29:44.060Z,974.43
2016-12-21T01:30:44.015Z,974.47
2016-12-21T01:31:43.973Z,974.44
2016-12-21T01:32:43.931Z,974.45
2016-12-21T01:33:43.889Z,974.43
2016-12-21T01:34:43.846Z,974.46
2016-12-21T01:35:43.803Z,974.48
2016-12-21T01:36:43.763Z,974.52
2016-12-21T01:37:43.719Z,974.48
2016-12-21T01:38:43.679Z,974.49
2016-12-21T01:39:43.635Z,974.42
2016-12-21T01:40:43.591Z,974.44
2016-12-21T01:41:43.549Z,974.48
2016-12-21T01:42:43.507Z,974.47
2016-12-21T01:43:43.465Z,974.47
2016-12-21T01:44:43.422Z,974.44
2016-12-21T01:45:43.384Z,974.4
2016-12-21T01:46:43.338Z,974.44
2016-12-21T01:47:43.295Z,974.44
2016-12-21T01:48:43.254Z,974.39
2016-12-21T01:49:43.210Z,974.42
2016-12-21T01:50:43.170Z,974.43
2016-12-21T01:51:43.127Z,974.47
2016-12-21T01:52:43.082Z,974.46
2016-12-21T01:53:43.040Z,974.39
2016-12-21T01:54:42.998Z,974.45
2016-12-21T01:55:42.955Z,974.46
2016-12-21T01:56:42.915Z,974.46
2016-12-21T01:57:42.871Z,974.46
2016-12-21T01:58:42.829Z,974.38
2016-12-21T01:59:42.787Z,974.36
2016-12-21T02:00:42.745Z,974.35
2016-12-21T02:01:42.703Z,974.43
2016-12-21T02:02:42.658Z,974.43
2016-12-21T02:03:42.616Z,974.45
2016-12-21T02:04:42.575Z,974.48
2016-12-21T02:05:42.532Z,974.46
2016-12-21T02:06:42.490Z,974.51
2016-12-21T02:07:42.446Z,974.49
2016-12-21T02:08:42.405Z,974.48
2016-12-21T02:09:42.363Z,974.43
2016-12-21T02:10:42.321Z,974.39
2016-12-21T02:11:42.277Z,974.36
2016-12-21T02:12:42.235Z,974.4
2016-12-21T02:13:42.191Z,974.5
2016-12-21T02:14:42.150Z,974.52
2016-12-21T02:15:42.107Z,974.59
2016-12-21T02:16:42.066Z,974.6
2016-12-21T02:17:42.021Z,974.65
2016-12-21T02:18:41.980Z,974.72
2016-12-21T02:19:41.937Z,974.72
2016-12-21T02:20:41.897Z,974.73
2016-12-21T02:21:41.852Z,974.74
2016-12-21T02:22:41.812Z,974.74
2016-12-21T02:23:41.766Z,974.76
2016-12-21T02:24:41.725Z,974.77
2016-12-21T02:25:41.682Z,974.8
2016-12-21T02:26:41.639Z,974.8
2016-12-21T02:27:41.597Z,974.75
2016-12-21T02:28:41.553Z,974.75
2016-12-21T02:29:41.513Z,974.72
2016-12-21T02:30:41.470Z,974.76
2016-12-21T02:31:41.429Z,974.79
2016-12-21T02:32:41.384Z,974.77
2016-12-21T02:33:41.341Z,974.81
2016-12-21T02:34:41.301Z,974.84
2016-12-21T02:35:41.256Z,974.89
2016-12-21T02:36:41.214Z,974.87
2016-12-21T02:37:41.175Z,974.85
2016-12-21T02:38:41.130Z,974.78
2016-12-21T02:39:41.086Z,974.79
2016-12-21T02:40:41.045Z,974.81
2016-12-21T02:41:41.002Z,974.78
2016-12-21T02:42:40.959Z,974.75
2016-12-21T02:43:40.917Z,974.78
2016-12-21T02:44:40.875Z,974.71
2016-12-21T02:45:40.832Z,974.72
2016-12-21T02:46:40.788Z,974.65
2016-12-21T02:47:40.748Z,974.65
2016-12-21T02:48:40.705Z,974.63
2016-12-21T02:49:40.661Z,974.67
2016-12-21T02:50:40.618Z,974.71
2016-12-21T02:51:40.577Z,974.68
2016-12-21T02:52:40.536Z,974.74
2016-12-21T02:53:40.492Z,974.73
2016-12-21T02:54:40.448Z,974.72
2016-12-21T02:55:40.407Z,974.71
2016-12-21T02:56:40.363Z,974.66
2016-12-21T02:57:40.320Z,974.63
2016-12-21T02:58:40.280Z,974.6
2016-12-21T02:59:40.236Z,974.59
2016-12-21T03:00:40.195Z,974.61
2016-12-21T03:01:40.150Z,974.62
2016-12-21T03:02:40.109Z,974.67
2016-12-21T03:03:40.067Z,974.67
2016-12-21T03:04:40.023Z,974.72
2016-12-21T03:05:39.982Z,974.77
2016-12-21T03:06:39.939Z,974.71
2016-12-21T03:07:39.900Z,974.75
2016-12-21T03:08:39.854Z,974.7
2016-12-21T03:09:39.812Z,974.65
2016-12-21T03:10:39.770Z,974.65
2016-12-21T03:11:39.727Z,974.68
2016-12-21T03:12:39.684Z,974.65
2016-12-21T03:13:39.643Z,974.67
2016-12-21T03:14:39.600Z,974.69
2016-12-21T03:15:39.557Z,974.67
2016-12-21T03:16:39.513Z,974.69
2016-12-21T03:17:39.472Z,974.68
2016-12-21T03:18:39.430Z,974.71
2016-12-21T03:19:39.387Z,974.7
2016-12-21T03:20:39.343Z,974.77
2016-12-21T03:21:39.302Z,974.83
2016-12-21T03:22:39.258Z,974.87
2016-12-21T03:23:39.215Z,974.84
2016-12-21T03:24:39.172Z,974.83
2016-12-21T03:25:39.132Z,974.88
2016-12-21T03:26:39.089Z,974.9
2016-12-21T03:27:39.045Z,974.88
2016-12-21T03:28:39.007Z,974.87
2016-12-21T03:29:38.961Z,974.92
2016-12-21T03:30:38.916Z,974.96
2016-12-21T03:31:38.876Z,974.96
2016-12-21T03:32:38.835Z,974.95
2016-12-21T03:33:38.793Z,974.99
2016-12-21T03:34:38.747Z,974.92
2016-12-21T03:35:38.704Z,974.86
2016-12-21T03:36:38.661Z,974.86
2016-12-21T03:37:38.620Z,974.84
2016-12-21T03:38:38.576Z,974.82
2016-12-21T03:39:38.534Z,974.82
2016-12-21T03:40:38.492Z,974.8
2016-12-21T03:41:38.449Z,974.75
2016-12-21T03:42:38.407Z,974.77
2016-12-21T03:43:38.363Z,974.77
2016-12-21T03:44:38.321Z,974.79
2016-12-21T03:45:38.279Z,974.81
2016-12-21T03:46:38.237Z,974.85
2016-12-21T03:47:38.194Z,974.84
2016-12-21T03:48:38.150Z,974.88
2016-12-21T03:49:38.108Z,974.91
2016-12-21T03:50:38.066Z,974.94
2016-12-21T03:51:38.023Z,974.88
2016-12-21T03:52:37.985Z,974.93
2016-12-21T03:53:37.937Z,974.9
2016-12-21T03:54:37.895Z,974.89
2016-12-21T03:55:37.852Z,974.88
2016-12-21T03:56:37.810Z,974.84
2016-12-21T03:57:37.781Z,974.83
2016-12-21T03:58:37.727Z,974.83
2016-12-21T03:59:37.683Z,974.8
2016-12-21T04:00:37.640Z,974.83
2016-12-21T04:01:37.599Z,974.82
2016-12-21T04:02:37.555Z,974.78
2016-12-21T04:03:37.513Z,974.78
2016-12-21T04:04:37.471Z,974.83
2016-12-21T04:05:37.428Z,974.83
2016-12-21T04:06:37.387Z,974.77
2016-12-21T04:07:37.342Z,974.85
2016-12-21T04:08:37.300Z,974.86
2016-12-21T04:09:37.258Z,974.86
2016-12-21T04:10:37.216Z,974.89
2016-12-21T04:11:37.172Z,974.89
2016-12-21T04:12:37.131Z,974.95
2016-12-21T04:13:37.089Z,974.91
2016-12-21T04:14:37.046Z,974.92
2016-12-21T04:15:37.002Z,974.91
2016-12-21T04:16:36.963Z,974.96
2016-12-21T04:17:36.918Z,974.97
2016-12-21T04:18:36.875Z,975.01
2016-12-21T04:19:36.833Z,975.02
2016-12-21T04:20:36.791Z,974.95
2016-12-21T04:21:36.747Z,974.93
2016-12-21T04:22:36.709Z,974.91
2016-12-21T04:23:36.662Z,974.96
2016-12-21T04:24:36.622Z,974.97
2016-12-21T04:25:36.577Z,974.97
2016-12-21T04:26:36.534Z,974.96
2016-12-21T04:27:36.494Z,974.96
2016-12-21T04:28:36.450Z,974.96
2016-12-21T04:29:36.408Z,975.03
2016-12-21T04:30:36.365Z,975.01
2016-12-21T04:31:36.324Z,975.02
2016-12-21T04:32:36.278Z,974.99
2016-12-21T04:33:36.237Z,975.03
2016-12-21T04:34:36.198Z,975
2016-12-21T04:35:36.153Z,974.99
2016-12-21T04:36:36.109Z,974.95
2016-12-21T04:37:36.069Z,974.96
2016-12-21T04:38:36.024Z,974.99
2016-12-21T04:39:35.983Z,974.98
2016-12-21T04:40:35.941Z,975.02
2016-12-21T04:41:35.898Z,975
2016-12-21T04:42:35.857Z,975.07
2016-12-21T04:43:35.813Z,975.06
2016-12-21T04:44:35.770Z,975.07
2016-12-21T04:45:35.729Z,975.1
2016-12-21T04:46:35.685Z,975.1
2016-12-21T04:47:35.642Z,975.11
2016-12-21T04:48:35.601Z,975.11
2016-12-21T04:49:35.559Z,975.09
2016-12-21T04:50:35.514Z,975.17
2016-12-21T04:51:35.473Z,975.14
2016-12-21T04:52:35.431Z,975.14
2016-12-21T04:53:35.387Z,975.13
2016-12-21T04:54:35.344Z,975.14
2016-12-21T04:55:35.301Z,975.16
2016-12-21T04:56:35.259Z,975.19
2016-12-21T04:57:35.218Z,975.22
2016-12-21T04:58:35.175Z,975.24
2016-12-21T04:59:35.131Z,975.23
2016-12-21T05:00:35.090Z,975.27
2016-12-21T05:01:35.047Z,975.25
2016-12-21T05:02:35.005Z,975.24
2016-12-21T05:03:34.962Z,975.3
2016-12-21T05:04:34.918Z,975.31
2016-12-21T05:05:34.878Z,975.33
2016-12-21T05:06:34.832Z,975.31
2016-12-21T05:07:34.791Z,975.29
2016-12-21T05:08:34.748Z,975.34
2016-12-21T05:09:34.703Z,975.35
2016-12-21T05:10:34.663Z,975.3
2016-12-21T05:11:34.619Z,975.31
2016-12-21T05:12:34.578Z,975.37
2016-12-21T05:13:34.535Z,975.42
2016-12-21T05:14:34.492Z,975.41
2016-12-21T05:15:34.450Z,975.4
2016-12-21T05:16:34.407Z,975.43
2016-12-21T05:17:34.363Z,975.44
2016-12-21T05:18:34.321Z,975.44
2016-12-21T05:19:34.278Z,975.42
2016-12-21T05:20:34.235Z,975.46
2016-12-21T05:21:34.194Z,975.45
2016-12-21T05:22:34.150Z,975.41
2016-12-21T05:23:34.106Z,975.39
2016-12-21T05:24:34.065Z,975.44
2016-12-21T05:25:34.021Z,975.45
2016-12-21T05:26:33.980Z,975.43
2016-12-21T05:27:33.937Z,975.46
2016-12-21T05:28:33.893Z,975.46
2016-12-21T05:29:33.852Z,975.49
2016-12-21T05:30:33.808Z,975.51
2016-12-21T05:31:33.764Z,975.52
2016-12-21T05:32:33.722Z,975.53
2016-12-21T05:33:33.681Z,975.58
2016-12-21T05:34:33.639Z,975.57
2016-12-21T05:35:33.594Z,975.57
2016-12-21T05:36:33.553Z,975.6
2016-12-21T05:37:33.510Z,975.63
2016-12-21T05:38:33.467Z,975.62
2016-12-21T05:39:33.424Z,975.61
2016-12-21T05:40:33.382Z,975.61
2016-12-21T05:41:33.339Z,975.59
2016-12-21T05:42:33.296Z,975.56
2016-12-21T05:43:33.254Z,975.6
2016-12-21T05:44:33.211Z,975.6
2016-12-21T05:45:33.168Z,975.63
2016-12-21T05:46:33.127Z,975.62
2016-12-21T05:47:33.083Z,975.61
2016-12-21T05:48:33.042Z,975.66
2016-12-21T05:49:32.998Z,975.65
2016-12-21T05:50:32.955Z,975.65
2016-12-21T05:51:32.914Z,975.66
2016-12-21T05:52:32.871Z,975.65
2016-12-21T05:53:32.828Z,975.7
2016-12-21T05:54:32.784Z,975.77
2016-12-21T05:55:32.742Z,975.76
2016-12-21T05:56:32.699Z,975.77
2016-12-21T05:57:32.658Z,975.78
2016-12-21T05:58:32.614Z,975.8
2016-12-21T05:59:32.571Z,975.78
2016-12-21T06:00:32.534Z,975.73
2016-12-21T06:01:32.486Z,975.78
2016-12-21T06:02:32.443Z,975.76
2016-12-21T06:03:32.401Z,975.8
2016-12-21T06:04:32.358Z,975.82
2016-12-21T06:05:32.316Z,975.86
2016-12-21T06:06:32.272Z,975.89
2016-12-21T06:07:32.231Z,975.9
2016-12-21T06:08:32.187Z,975.9
2016-12-21T06:09:32.146Z,975.93
2016-12-21T06:10:32.106Z,975.9
2016-12-21T06:11:32.059Z,975.92
2016-12-21T06:12:32.016Z,975.94
2016-12-21T06:13:31.976Z,975.95
2016-12-21T06:14:31.932Z,975.98
2016-12-21T06:15:31.890Z,975.99
2016-12-21T06:16:31.849Z,975.94
2016-12-21T06:17:31.804Z,975.92
2016-12-21T06:18:31.761Z,975.96
2016-12-21T06:19:31.719Z,975.92
2016-12-21T06:20:31.676Z,975.95
2016-12-21T06:21:31.635Z,975.97
2016-12-21T06:22:31.591Z,975.94
2016-12-21T06:23:31.548Z,975.95
2016-12-21T06:24:31.505Z,975.97
2016-12-21T06:25:31.463Z,976.01
2016-12-21T06:26:31.419Z,976.06
2016-12-21T06:27:31.376Z,976.1
2016-12-21T06:28:31.334Z,976.07
2016-12-21T06:29:31.290Z,976.08
2016-12-21T06:30:31.248Z,976.08
2016-12-21T06:31:31.208Z,976.07
2016-12-21T06:32:31.165Z,976.07
2016-12-21T06:33:31.122Z,976.09
2016-12-21T06:34:31.077Z,976.12
2016-12-21T06:35:31.036Z,976.13
2016-12-21T06:36:30.991Z,976.11
2016-12-21T06:37:30.951Z,976.09
2016-12-21T06:38:30.908Z,976.11
2016-12-21T06:39:30.866Z,976.12
2016-12-21T06:40:30.822Z,976.09
2016-12-21T06:41:30.779Z,976.1
2016-12-21T06:42:30.736Z,976.12
2016-12-21T06:43:30.695Z,976.16
2016-12-21T06:44:30.652Z,976.11
2016-12-21T06:45:30.610Z,976.18
2016-12-21T06:46:30.569Z,976.19
2016-12-21T06:47:30.528Z,976.17
2016-12-21T06:48:30.482Z,976.24
2016-12-21T06:49:30.439Z,976.23
2016-12-21T06:50:30.397Z,976.22
2016-12-21T06:51:30.353Z,976.24
2016-12-21T06:52:30.311Z,976.31
2016-12-21T06:53:30.269Z,976.32
2016-12-21T06:54:30.225Z,976.28
2016-12-21T06:55:30.183Z,976.3
2016-12-21T06:56:30.143Z,976.29
2016-12-21T06:57:30.099Z,976.33
2016-12-21T06:58:30.054Z,976.36
2016-12-21T06:59:30.013Z,976.35
2016-12-21T07:00:29.971Z,976.4
2016-12-21T07:01:29.928Z,976.37
2016-12-21T07:02:29.886Z,976.34
2016-12-21T07:03:29.843Z,976.38
2016-12-21T07:04:29.800Z,976.36
2016-12-21T07:05:29.758Z,976.4
2016-12-21T07:06:29.716Z,976.42
2016-12-21T07:07:29.672Z,976.49
2016-12-21T07:08:29.629Z,976.47
2016-12-21T07:09:29.589Z,976.54
2016-12-21T07:10:29.544Z,976.56
2016-12-21T07:11:29.504Z,976.56
2016-12-21T07:12:29.459Z,976.59
2016-12-21T07:13:29.417Z,976.62
2016-12-21T07:14:29.375Z,976.65
2016-12-21T07:15:29.332Z,976.68
2016-12-21T07:16:29.293Z,976.68
2016-12-21T07:17:29.246Z,976.66
2016-12-21T07:18:29.205Z,976.66
2016-12-21T07:19:29.163Z,976.69
2016-12-21T07:20:29.119Z,976.68
2016-12-21T07:21:29.076Z,976.67
2016-12-21T07:22:29.035Z,976.66
2016-12-21T07:23:28.993Z,976.74
2016-12-21T07:24:28.950Z,976.79
2016-12-21T07:25:28.907Z,976.79
2016-12-21T07:26:28.864Z,976.81
2016-12-21T07:27:28.822Z,976.84
2016-12-21T07:28:28.778Z,976.83
2016-12-21T07:29:28.735Z,976.87
2016-12-21T07:30:28.693Z,976.88
2016-12-21T07:31:28.652Z,976.88
2016-12-21T07:32:28.608Z,976.85
2016-12-21T07:33:28.566Z,976.89
2016-12-21T07:34:28.523Z,976.91
2016-12-21T07:35:28.480Z,976.94
2016-12-21T07:36:28.438Z,976.93
2016-12-21T07:37:28.396Z,977
2016-12-21T07:38:28.353Z,977
2016-12-21T07:39:28.310Z,976.98
2016-12-21T07:40:28.267Z,977.03
2016-12-21T07:41:28.225Z,977.08
2016-12-21T07:42:28.185Z,977.1
2016-12-21T07:43:28.140Z,977.07
2016-12-21T07:44:28.099Z,977.08
2016-12-21T07:45:28.054Z,977.1
2016-12-21T07:46:28.013Z,977.09
2016-12-21T07:47:27.971Z,977.15
2016-12-21T07:48:27.928Z,977.08
2016-12-21T07:49:27.885Z,977.06
2016-12-21T07:50:27.851Z,977.06
2016-12-21T07:51:27.801Z,977.1
2016-12-21T07:52:27.760Z,977.05
2016-12-21T07:53:27.716Z,977.06
2016-12-21T07:54:27.673Z,977.04
2016-12-21T07:55:27.633Z,977.08
2016-12-21T07:56:27.589Z,977.11
2016-12-21T07:57:27.545Z,977.15
2016-12-21T07:58:27.506Z,977.2
2016-12-21T07:59:27.462Z,977.25
2016-12-21T08:00:27.419Z,977.24
2016-12-21T08:01:27.377Z,977.28
2016-12-21T08:02:27.334Z,977.33
2016-12-21T08:03:27.292Z,977.28
2016-12-21T08:04:27.250Z,977.32
2016-12-21T08:05:27.207Z,977.38
2016-12-21T08:06:27.166Z,977.4
2016-12-21T08:07:27.124Z,977.39
2016-12-21T08:08:27.079Z,977.38
2016-12-21T08:09:27.038Z,977.4
2016-12-21T08:10:26.997Z,977.42
2016-12-21T08:11:26.953Z,977.42
2016-12-21T08:12:26.911Z,977.43
2016-12-21T08:13:26.869Z,977.47
2016-12-21T08:14:26.827Z,977.46
2016-12-21T08:15:26.783Z,977.46
2016-12-21T08:16:26.741Z,977.46
2016-12-21T08:17:26.698Z,977.47
2016-12-21T08:18:26.656Z,977.5
2016-12-21T08:19:26.613Z,977.51
2016-12-21T08:20:26.570Z,977.56
2016-12-21T08:21:26.531Z,977.6
2016-12-21T08:22:26.486Z,977.59
2016-12-21T08:23:26.444Z,977.58
2016-12-21T08:24:26.402Z,977.58
2016-12-21T08:25:26.363Z,977.58
2016-12-21T08:26:26.317Z,977.52
2016-12-21T08:27:26.273Z,977.6
2016-12-21T08:28:26.232Z,977.61
2016-12-21T08:29:26.190Z,977.57
2016-12-21T08:30:26.147Z,977.6
2016-12-21T08:31:26.104Z,977.59
2016-12-21T08:32:26.064Z,977.57
2016-12-21T08:33:26.020Z,977.59
2016-12-21T08:34:25.979Z,977.65
2016-12-21T08:35:25.936Z,977.63
2016-12-21T08:36:25.892Z,977.66
2016-12-21T08:37:25.848Z,977.69
2016-12-21T08:38:25.806Z,977.69
2016-12-21T08:39:25.764Z,977.68
2016-12-21T08:40:25.724Z,977.75
2016-12-21T08:41:25.680Z,977.76
2016-12-21T08:42:25.637Z,977.8
2016-12-21T08:43:25.596Z,977.85
2016-12-21T08:44:25.552Z,977.88
2016-12-21T08:45:25.511Z,977.89
2016-12-21T08:46:25.469Z,977.93
2016-12-21T08:47:25.427Z,977.99
2016-12-21T08:48:25.382Z,977.97
2016-12-21T08:49:25.340Z,977.96
2016-12-21T08:50:25.300Z,977.97
2016-12-21T08:51:25.256Z,978.01
2016-12-21T08:52:25.214Z,978.04
2016-12-21T08:53:25.172Z,978.01
2016-12-21T08:54:25.131Z,977.98
2016-12-21T08:55:25.087Z,978.01
2016-12-21T08:56:25.045Z,977.98
2016-12-21T08:57:25.003Z,978
2016-12-21T08:58:24.962Z,978.02
2016-12-21T08:59:24.917Z,978.01
2016-12-21T09:00:24.876Z,978.07
2016-12-21T09:01:24.834Z,978.08
2016-12-21T09:02:24.792Z,978.04
2016-12-21T09:03:24.749Z,978.09
2016-12-21T09:04:24.707Z,978.08
2016-12-21T09:05:24.667Z,978.08
2016-12-21T09:06:24.624Z,978.08
2016-12-21T09:07:24.582Z,978.14
2016-12-21T09:08:24.538Z,978.12
2016-12-21T09:09:24.496Z,978.11
2016-12-21T09:10:24.454Z,978.11
2016-12-21T09:11:24.412Z,978.13
2016-12-21T09:12:24.371Z,978.15
2016-12-21T09:13:24.329Z,978.18
2016-12-21T09:14:24.286Z,978.19
2016-12-21T09:15:24.244Z,978.22
2016-12-21T09:16:24.199Z,978.2
2016-12-21T09:17:24.158Z,978.26
2016-12-21T09:18:24.117Z,978.23
2016-12-21T09:19:24.075Z,978.2
2016-12-21T09:20:24.038Z,978.24
2016-12-21T09:21:23.990Z,978.23
2016-12-21T09:22:23.951Z,978.27
2016-12-21T09:23:23.906Z,978.33
2016-12-21T09:24:23.864Z,978.3
2016-12-21T09:25:23.823Z,978.32
2016-12-21T09:26:23.781Z,978.27
2016-12-21T09:27:23.739Z,978.28
2016-12-21T09:28:23.697Z,978.32
2016-12-21T09:29:23.656Z,978.31
2016-12-21T09:30:23.613Z,978.34
2016-12-21T09:31:23.574Z,978.37
2016-12-21T09:32:23.529Z,978.39
2016-12-21T09:33:23.486Z,978.39
2016-12-21T09:34:23.447Z,978.36
2016-12-21T09:35:23.401Z,978.31
2016-12-21T09:36:23.359Z,978.31
2016-12-21T09:37:23.319Z,978.31
2016-12-21T09:38:23.278Z,978.34
2016-12-21T09:39:23.236Z,978.33
2016-12-21T09:40:23.194Z,978.38
2016-12-21T09:41:23.152Z,978.39
2016-12-21T09:42:23.111Z,978.35
2016-12-21T09:43:23.066Z,978.35
2016-12-21T09:44:23.025Z,978.37
2016-12-21T09:45:22.985Z,978.36
2016-12-21T09:46:22.942Z,978.35
2016-12-21T09:47:22.901Z,978.4
2016-12-21T09:48:22.859Z,978.39
2016-12-21T09:49:22.818Z,978.37
2016-12-21T09:50:22.774Z,978.39
2016-12-21T09:51:22.734Z,978.39
2016-12-21T09:52:22.691Z,978.41
2016-12-21T09:53:22.650Z,978.39
2016-12-21T09:54:22.607Z,978.37
2016-12-21T09:55:22.567Z,978.37
2016-12-21T09:56:22.525Z,978.38
2016-12-21T09:57:22.482Z,978.41
2016-12-21T09:58:22.439Z,978.36
2016-12-21T09:59:22.400Z,978.36
2016-12-21T10:00:22.360Z,978.36
2016-12-21T10:01:22.319Z,978.36
2016-12-21T10:02:22.274Z,978.33
2016-12-21T10:03:22.233Z,978.35
2016-12-21T10:04:22.198Z,978.33
2016-12-21T10:05:22.148Z,978.42
2016-12-21T10:06:22.108Z,978.42
2016-12-21T10:07:22.066Z,978.38
2016-12-21T10:08:22.024Z,978.42
2016-12-21T10:09:21.982Z,978.39
2016-12-21T10:10:21.942Z,978.39
2016-12-21T10:11:21.899Z,978.36
2016-12-21T10:12:21.857Z,978.35
2016-12-21T10:13:21.814Z,978.38
2016-12-21T10:14:21.774Z,978.35
2016-12-21T10:15:21.733Z,978.33
2016-12-21T10:16:21.690Z,978.3
2016-12-21T10:17:21.648Z,978.34
2016-12-21T10:18:21.608Z,978.3
2016-12-21T10:19:21.565Z,978.33
2016-12-21T10:20:21.525Z,978.33
2016-12-21T10:21:21.483Z,978.36
2016-12-21T10:22:21.443Z,978.32
2016-12-21T10:23:21.400Z,978.37
2016-12-21T10:24:21.359Z,978.38
2016-12-21T10:25:21.318Z,978.36
2016-12-21T10:26:21.279Z,978.36
2016-12-21T10:27:21.235Z,978.38
2016-12-21T10:28:21.195Z,978.34
2016-12-21T10:29:21.153Z,978.36
2016-12-21T10:30:21.110Z,978.37
2016-12-21T10:31:21.069Z,978.33
2016-12-21T10:32:21.028Z,978.35
2016-12-21T10:33:20.987Z,978.32
2016-12-21T10:34:20.945Z,978.32
2016-12-21T10:35:20.904Z,978.29
2016-12-21T10:36:20.865Z,978.32
2016-12-21T10:37:20.822Z,978.34
2016-12-21T10:38:20.778Z,978.33
2016-12-21T10:39:20.739Z,978.33
2016-12-21T10:40:20.699Z,978.32
2016-12-21T10:41:20.654Z,978.32
2016-12-21T10:42:20.614Z,978.34
2016-12-21T10:43:20.575Z,978.31
2016-12-21T10:44:20.531Z,978.31
2016-12-21T10:45:20.490Z,978.29
2016-12-21T10:46:20.448Z,978.33
2016-12-21T10:47:20.409Z,978.35
2016-12-21T10:48:20.367Z,978.4
2016-12-21T10:49:20.325Z,978.39
2016-12-21T10:50:20.284Z,978.43
2016-12-21T10:51:20.242Z,978.45
2016-12-21T10:52:20.199Z,978.37
2016-12-21T10:53:20.159Z,978.46
2016-12-21T10:54:20.127Z,978.43
2016-12-21T10:55:20.093Z,978.46
2016-12-21T10:56:20.038Z,978.44
2016-12-21T10:57:19.996Z,978.51
2016-12-21T10:58:19.953Z,978.52
2016-12-21T10:59:19.911Z,978.52
2016-12-21T11:00:19.871Z,978.47
2016-12-21T11:01:19.828Z,978.44
2016-12-21T11:02:19.790Z,978.4
2016-12-21T11:03:19.746Z,978.41
2016-12-21T11:04:19.705Z,978.4
2016-12-21T11:05:19.663Z,978.41
2016-12-21T11:06:19.623Z,978.4
2016-12-21T11:07:19.581Z,978.37
2016-12-21T11:08:19.540Z,978.32
2016-12-21T11:09:19.499Z,978.28
2016-12-21T11:10:19.455Z,978.27
2016-12-21T11:11:19.416Z,978.3
2016-12-21T11:12:19.375Z,978.29
2016-12-21T11:13:19.333Z,978.27
2016-12-21T11:14:19.291Z,978.29
2016-12-21T11:15:19.250Z,978.26
2016-12-21T11:16:19.218Z,978.28
2016-12-21T11:17:19.169Z,978.24
2016-12-21T11:18:19.125Z,978.23
2016-12-21T11:19:19.086Z,978.18
2016-12-21T11:20:19.046Z,978.2
2016-12-21T11:21:19.001Z,978.19
2016-12-21T11:22:18.962Z,978.16
2016-12-21T11:23:18.919Z,978.17
2016-12-21T11:24:18.879Z,978.22
2016-12-21T11:25:18.838Z,978.18
2016-12-21T11:26:18.798Z,978.18
2016-12-21T11:27:18.755Z,978.19
2016-12-21T11:28:18.712Z,978.21
2016-12-21T11:29:18.671Z,978.2
2016-12-21T11:30:18.633Z,978.18
2016-12-21T11:31:18.589Z,978.18
2016-12-21T11:32:18.548Z,978.13
2016-12-21T11:33:18.507Z,978.18
2016-12-21T11:34:18.466Z,978.16
2016-12-21T11:35:18.425Z,978.19
2016-12-21T11:36:18.383Z,978.16
2016-12-21T11:37:18.343Z,978.18
2016-12-21T11:38:18.301Z,978.11
2016-12-21T11:39:18.262Z,978.19
2016-12-21T11:40:18.218Z,978.14
2016-12-21T11:41:18.178Z,978.13
2016-12-21T11:42:18.137Z,978.16
2016-12-21T11:43:18.095Z,978.12
2016-12-21T11:44:18.055Z,978.17
2016-12-21T11:45:18.014Z,978.17
2016-12-21T11:46:17.974Z,978.17
2016-12-21T11:47:17.931Z,978.12
2016-12-21T11:48:17.893Z,978.16
2016-12-21T11:49:17.850Z,978.12
2016-12-21T11:50:17.810Z,978.16
2016-12-21T11:51:17.768Z,978.12
2016-12-21T11:52:17.727Z,978.11
2016-12-21T11:53:17.687Z,978.16
2016-12-21T11:54:17.644Z,978.11
2016-12-21T11:55:17.604Z,978.1
2016-12-21T11:56:17.563Z,978.08
2016-12-21T11:57:17.522Z,978.09
2016-12-21T11:58:17.480Z,978.03
2016-12-21T11:59:17.439Z,978.02
2016-12-21T12:00:17.398Z,978.01
2016-12-21T12:01:17.358Z,978.01
2016-12-21T12:02:17.318Z,977.98
2016-12-21T12:03:17.276Z,977.98
2016-12-21T12:04:17.235Z,977.94
2016-12-21T12:05:17.192Z,977.95
2016-12-21T12:06:17.152Z,977.93
2016-12-21T12:07:17.111Z,977.92
2016-12-21T12:08:17.071Z,977.92
2016-12-21T12:09:17.028Z,977.92
2016-12-21T12:10:16.987Z,977.93
2016-12-21T12:11:16.947Z,977.93
2016-12-21T12:12:16.914Z,977.94
2016-12-21T12:13:16.864Z,977.93
2016-12-21T12:14:16.824Z,977.91
2016-12-21T12:15:16.784Z,977.94
2016-12-21T12:16:16.740Z,977.95
2016-12-21T12:17:16.700Z,977.98
2016-12-21T12:18:16.659Z,977.97
2016-12-21T12:19:16.620Z,977.99
2016-12-21T12:20:16.577Z,978
2016-12-21T12:21:16.537Z,977.98
2016-12-21T12:22:16.495Z,977.97
2016-12-21T12:23:16.454Z,977.97
2016-12-21T12:24:16.413Z,977.96
2016-12-21T12:25:16.372Z,977.95
2016-12-21T12:26:16.330Z,977.91
2016-12-21T12:27:16.288Z,977.95
2016-12-21T12:28:16.246Z,977.94
2016-12-21T12:29:16.207Z,977.93
2016-12-21T12:30:16.166Z,977.94
2016-12-21T12:31:16.125Z,977.95